sensor_id;sensor_type;location;lat;lon;timestamp;pressure;altitude;pressure_sealevel;temperature;humidity
8477;BME280;4275;42.854;23.222;2023-07-31T00:01:41;57006.53;;;-141.02;100.00
8477;BME280;4275;42.854;23.222;2023-07-31T00:04:08;65654.13;;;-141.02;100.00
8477;BME280;4275;42.854;23.222;2023-07-31T00:06:35;71844.47;;;-141.02;100.00
8477;BME280;4275;42.854;23.222;2023-07-31T00:09:02;77549.47;;;-141.02;100.00
8477;BME280;4275;42.854;23.222;2023-07-31T00:11:29;82518.06;;;-141.02;100.00
8477;BME280;4275;42.854;23.222;2023-07-31T00:13:56;86995.94;;;-141.02;100.00
8477;BME280;4275;42.854;23.222;2023-07-31T00:16:24;91479.63;;;-141.02;100.00
8477;BME280;4275;42.854;23.222;2023-07-31T00:18:51;94970.94;;;-141.02;100.00
8477;BME280;4275;42.854;23.222;2023-07-31T00:21:18;97716.59;;;-141.02;100.00
8477;BME280;4275;42.854;23.222;2023-07-31T00:23:45;100214.53;;;-141.02;100.00
8477;BME280;4275;42.854;23.222;2023-07-31T00:26:12;101964.16;;;-141.02;100.00
8477;BME280;4275;42.854;23.222;2023-07-31T00:28:39;103214.44;;;-141.02;100.00
8477;BME280;4275;42.854;23.222;2023-07-31T00:31:06;104465.16;;;-141.02;100.00
8477;BME280;4275;42.854;23.222;2023-07-31T00:33:35;105466.03;;;-141.02;100.00
8477;BME280;4275;42.854;23.222;2023-07-31T00:36:02;106216.91;;;-141.02;100.00
8477;BME280;4275;42.854;23.222;2023-07-31T00:38:29;106967.91;;;-141.02;100.00
8477;BME280;4275;42.854;23.222;2023-07-31T00:40:56;107468.69;;;-141.02;100.00
8477;BME280;4275;42.854;23.222;2023-07-31T00:43:24;107719.09;;;-141.02;100.00
8477;BME280;4275;42.854;23.222;2023-07-31T00:46:07;107969.53;;;-141.02;100.00
8477;BME280;4275;42.854;23.222;2023-07-31T00:51:55;107971.50;;;-141.02;100.00
8477;BME280;4275;42.854;23.222;2023-07-31T00:54:23;107971.50;;;-141.02;100.00
8477;BME280;4275;42.854;23.222;2023-07-31T00:56:50;107971.50;;;-141.02;100.00
8477;BME280;4275;42.854;23.222;2023-07-31T00:59:19;107971.50;;;-141.02;100.00
8477;BME280;4275;42.854;23.222;2023-07-31T01:01:46;107971.50;;;-141.02;100.00
8477;BME280;4275;42.854;23.222;2023-07-31T01:04:14;107971.50;;;-141.02;100.00
8477;BME280;4275;42.854;23.222;2023-07-31T01:06:50;107971.50;;;-141.02;100.00
8477;BME280;4275;42.854;23.222;2023-07-31T01:09:29;107971.50;;;-141.02;100.00
8477;BME280;4275;42.854;23.222;2023-07-31T01:12:02;107971.50;;;-141.02;100.00
8477;BME280;4275;42.854;23.222;2023-07-31T01:14:30;107971.50;;;-141.02;100.00
8477;BME280;4275;42.854;23.222;2023-07-31T01:16:57;107971.50;;;-141.02;100.00
8477;BME280;4275;42.854;23.222;2023-07-31T01:19:25;107971.50;;;-141.02;100.00
8477;BME280;4275;42.854;23.222;2023-07-31T01:22:15;107971.50;;;-141.02;100.00
8477;BME280;4275;42.854;23.222;2023-07-31T01:24:55;107971.50;;;-141.02;100.00
8477;BME280;4275;42.854;23.222;2023-07-31T01:27:30;107971.50;;;-141.02;100.00
8477;BME280;4275;42.854;23.222;2023-07-31T01:30:07;107971.50;;;-141.02;100.00
8477;BME280;4275;42.854;23.222;2023-07-31T01:32:39;107971.50;;;-141.02;100.00
8477;BME280;4275;42.854;23.222;2023-07-31T01:35:07;107971.50;;;-141.02;100.00
8477;BME280;4275;42.854;23.222;2023-07-31T01:37:34;107971.50;;;-141.02;100.00
8477;BME280;4275;42.854;23.222;2023-07-31T01:40:02;107971.50;;;-141.02;100.00
8477;BME280;4275;42.854;23.222;2023-07-31T01:42:30;107971.50;;;-141.02;100.00
8477;BME280;4275;42.854;23.222;2023-07-31T01:44:57;107971.50;;;-141.02;100.00
8477;BME280;4275;42.854;23.222;2023-07-31T01:47:24;107971.50;;;-141.02;100.00
8477;BME280;4275;42.854;23.222;2023-07-31T01:49:55;107971.50;;;-141.02;100.00
8477;BME280;4275;42.854;23.222;2023-07-31T01:52:37;107971.50;;;-141.02;100.00
8477;BME280;4275;42.854;23.222;2023-07-31T01:55:05;107971.50;;;-141.02;100.00
8477;BME280;4275;42.854;23.222;2023-07-31T01:57:36;107971.50;;;-141.02;100.00
8477;BME280;4275;42.854;23.222;2023-07-31T02:00:14;107971.50;;;-141.02;100.00
8477;BME280;4275;42.854;23.222;2023-07-31T02:02:41;107971.50;;;-141.02;100.00
8477;BME280;4275;42.854;23.222;2023-07-31T02:05:08;107971.50;;;-141.02;100.00
8477;BME280;4275;42.854;23.222;2023-07-31T02:07:35;107971.50;;;-141.02;100.00
8477;BME280;4275;42.854;23.222;2023-07-31T02:10:14;107971.50;;;-141.02;100.00
8477;BME280;4275;42.854;23.222;2023-07-31T02:12:42;107971.50;;;-141.02;100.00
8477;BME280;4275;42.854;23.222;2023-07-31T02:15:09;107971.50;;;-141.02;100.00
8477;BME280;4275;42.854;23.222;2023-07-31T02:17:36;107971.50;;;-141.02;100.00
8477;BME280;4275;42.854;23.222;2023-07-31T02:20:04;107971.50;;;-141.02;100.00
8477;BME280;4275;42.854;23.222;2023-07-31T02:22:31;107971.50;;;-141.02;100.00
8477;BME280;4275;42.854;23.222;2023-07-31T02:24:58;107971.50;;;-141.02;100.00
8477;BME280;4275;42.854;23.222;2023-07-31T02:27:25;107971.50;;;-141.02;100.00
8477;BME280;4275;42.854;23.222;2023-07-31T02:29:54;107971.50;;;-141.02;100.00
8477;BME280;4275;42.854;23.222;2023-07-31T02:32:28;107971.50;;;-141.02;100.00
8477;BME280;4275;42.854;23.222;2023-07-31T02:38:16;107971.50;;;-141.02;100.00
8477;BME280;4275;42.854;23.222;2023-07-31T02:40:43;107971.50;;;-141.02;100.00
8477;BME280;4275;42.854;23.222;2023-07-31T02:43:11;107971.50;;;-141.02;100.00
8477;BME280;4275;42.854;23.222;2023-07-31T02:45:39;107971.50;;;-141.02;100.00
8477;BME280;4275;42.854;23.222;2023-07-31T02:48:06;107971.50;;;-141.02;100.00
8477;BME280;4275;42.854;23.222;2023-07-31T02:50:33;107971.50;;;-141.02;100.00
8477;BME280;4275;42.854;23.222;2023-07-31T02:53:00;107971.50;;;-141.02;100.00
8477;BME280;4275;42.854;23.222;2023-07-31T02:55:27;107971.50;;;-141.02;100.00
8477;BME280;4275;42.854;23.222;2023-07-31T02:57:54;107971.50;;;-141.02;100.00
8477;BME280;4275;42.854;23.222;2023-07-31T03:00:21;107971.50;;;-141.02;100.00
8477;BME280;4275;42.854;23.222;2023-07-31T03:02:50;107971.50;;;-141.02;100.00
8477;BME280;4275;42.854;23.222;2023-07-31T03:05:17;107971.50;;;-141.02;100.00
8477;BME280;4275;42.854;23.222;2023-07-31T03:07:43;107971.50;;;-141.02;100.00
8477;BME280;4275;42.854;23.222;2023-07-31T03:13:29;107971.50;;;-141.02;100.00
8477;BME280;4275;42.854;23.222;2023-07-31T03:15:56;107971.50;;;-141.02;100.00
8477;BME280;4275;42.854;23.222;2023-07-31T03:18:24;107971.50;;;-141.02;100.00
8477;BME280;4275;42.854;23.222;2023-07-31T03:20:51;107971.50;;;-141.02;100.00
8477;BME280;4275;42.854;23.222;2023-07-31T03:23:18;107971.50;;;-141.02;100.00
8477;BME280;4275;42.854;23.222;2023-07-31T03:25:57;107971.50;;;-141.02;100.00
8477;BME280;4275;42.854;23.222;2023-07-31T03:28:24;107971.50;;;-141.02;100.00
8477;BME280;4275;42.854;23.222;2023-07-31T03:34:26;107971.50;;;-141.02;100.00
8477;BME280;4275;42.854;23.222;2023-07-31T03:36:53;107971.50;;;-141.02;100.00
8477;BME280;4275;42.854;23.222;2023-07-31T03:39:20;107971.50;;;-141.02;100.00
8477;BME280;4275;42.854;23.222;2023-07-31T03:41:47;107971.50;;;-141.02;100.00
8477;BME280;4275;42.854;23.222;2023-07-31T03:47:34;107971.50;;;-141.02;100.00
8477;BME280;4275;42.854;23.222;2023-07-31T03:50:03;107971.50;;;-141.02;100.00
8477;BME280;4275;42.854;23.222;2023-07-31T03:52:30;107971.50;;;-141.02;100.00
8477;BME280;4275;42.854;23.222;2023-07-31T03:58:55;107971.50;;;-141.02;100.00
8477;BME280;4275;42.854;23.222;2023-07-31T04:11:00;107971.50;;;-141.02;100.00
8477;BME280;4275;42.854;23.222;2023-07-31T04:19:47;107971.50;;;-141.02;100.00
8477;BME280;4275;42.854;23.222;2023-07-31T04:22:14;107971.50;;;-141.02;100.00
8477;BME280;4275;42.854;23.222;2023-07-31T04:24:42;107971.50;;;-141.02;100.00
8477;BME280;4275;42.854;23.222;2023-07-31T04:33:53;106467.22;;;-141.02;100.00
8477;BME280;4275;42.854;23.222;2023-07-31T04:36:57;106467.22;;;-141.02;100.00
8477;BME280;4275;42.854;23.222;2023-07-31T04:39:28;106467.22;;;-141.02;100.00
8477;BME280;4275;42.854;23.222;2023-07-31T04:45:30;106967.91;;;-141.02;100.00
8477;BME280;4275;42.854;23.222;2023-07-31T04:47:59;106967.91;;;-141.02;100.00
8477;BME280;4275;42.854;23.222;2023-07-31T04:50:27;107218.31;;;-141.02;100.00
8477;BME280;4275;42.854;23.222;2023-07-31T04:53:29;106967.91;;;-141.02;100.00
8477;BME280;4275;42.854;23.222;2023-07-31T04:55:56;106967.91;;;-141.02;100.00
8477;BME280;4275;42.854;23.222;2023-07-31T04:58:52;105966.59;;;-141.02;100.00
8477;BME280;4275;42.854;23.222;2023-07-31T05:01:20;103214.44;;;-141.02;100.00
8477;BME280;4275;42.854;23.222;2023-07-31T05:03:47;99464.97;;;-141.02;100.00
8477;BME280;4275;42.854;23.222;2023-07-31T05:06:15;96717.94;;;-141.02;100.00
8477;BME280;4275;42.854;23.222;2023-07-31T05:08:42;95719.53;;;-141.02;100.00
8477;BME280;4275;42.854;23.222;2023-07-31T05:11:09;95969.13;;;-141.02;100.00
8477;BME280;4275;42.854;23.222;2023-07-31T05:13:36;95470.00;;;-141.02;100.00
8477;BME280;4275;42.854;23.222;2023-07-31T05:16:03;93973.06;;;-141.02;100.00
8477;BME280;4275;42.854;23.222;2023-07-31T05:18:30;93224.84;;;-141.02;100.00
8477;BME280;4275;42.854;23.222;2023-07-31T05:20:58;93224.84;;;-141.02;100.00
8477;BME280;4275;42.854;23.222;2023-07-31T05:23:26;92476.78;;;-141.02;100.00
8477;BME280;4275;42.854;23.222;2023-07-31T05:25:53;92975.47;;;-141.02;100.00
8477;BME280;4275;42.854;23.222;2023-07-31T05:28:21;93224.84;;;-141.02;100.00
8477;BME280;4275;42.854;23.222;2023-07-31T05:30:48;92726.13;;;-141.02;100.00
8477;BME280;4275;42.854;23.222;2023-07-31T05:33:15;92975.47;;;-141.02;100.00
8477;BME280;4275;42.854;23.222;2023-07-31T05:35:42;93723.63;;;-141.02;100.00
8477;BME280;4275;42.854;23.222;2023-07-31T05:38:10;93474.22;;;-141.02;100.00
8477;BME280;4275;42.854;23.222;2023-07-31T05:40:38;91230.38;;;-141.02;100.00
8477;BME280;4275;42.854;23.222;2023-07-31T05:43:05;91978.16;;;-141.02;100.00
8477;BME280;4275;42.854;23.222;2023-07-31T05:45:33;92726.13;;;-141.02;100.00
8477;BME280;4275;42.854;23.222;2023-07-31T05:48:00;93474.22;;;-141.02;100.00
8477;BME280;4275;42.854;23.222;2023-07-31T05:50:27;92476.78;;;-141.02;100.00
8477;BME280;4275;42.854;23.222;2023-07-31T05:52:54;90981.13;;;-141.02;100.00
8477;BME280;4275;42.854;23.222;2023-07-31T05:55:21;89486.16;;;-141.02;100.00
8477;BME280;4275;42.854;23.222;2023-07-31T05:57:50;88489.84;;;-141.02;100.00
8477;BME280;4275;42.854;23.222;2023-07-31T06:00:17;88240.81;;;-141.02;100.00
8477;BME280;4275;42.854;23.222;2023-07-31T06:02:44;86249.22;;;-141.02;100.00
8477;BME280;4275;42.854;23.222;2023-07-31T06:05:11;86000.34;;;-141.02;100.00
8477;BME280;4275;42.854;23.222;2023-07-31T06:07:38;85502.66;;;-141.02;100.00
8477;BME280;4275;42.854;23.222;2023-07-31T06:10:06;85005.03;;;-141.02;100.00
8477;BME280;4275;42.854;23.222;2023-07-31T06:12:34;83761.31;;;-141.02;100.00
8477;BME280;4275;42.854;23.222;2023-07-31T06:15:03;82518.06;;;-141.02;100.00
8477;BME280;4275;42.854;23.222;2023-07-31T06:17:31;82020.88;;;-141.02;100.00
8477;BME280;4275;42.854;23.222;2023-07-31T06:19:58;82020.88;;;-141.02;100.00
8477;BME280;4275;42.854;23.222;2023-07-31T06:22:25;80778.25;;;-141.02;100.00
8477;BME280;4275;42.854;23.222;2023-07-31T06:24:52;81275.25;;;-141.02;100.00
8477;BME280;4275;42.854;23.222;2023-07-31T06:27:19;83015.31;;;-141.02;100.00
8477;BME280;4275;42.854;23.222;2023-07-31T06:29:46;82518.06;;;-141.02;100.00
8477;BME280;4275;42.854;23.222;2023-07-31T06:32:14;83761.31;;;-141.02;100.00
8477;BME280;4275;42.854;23.222;2023-07-31T06:34:41;85253.84;;;-141.02;100.00
8477;BME280;4275;42.854;23.222;2023-07-31T06:37:08;84258.75;;;-141.02;100.00
8477;BME280;4275;42.854;23.222;2023-07-31T06:39:35;83263.97;;;-141.02;100.00
8477;BME280;4275;42.854;23.222;2023-07-31T06:42:03;82020.88;;;-141.02;100.00
8477;BME280;4275;42.854;23.222;2023-07-31T06:44:30;81772.31;;;-141.02;100.00
8477;BME280;4275;42.854;23.222;2023-07-31T06:46:57;81275.25;;;-141.02;100.00
8477;BME280;4275;42.854;23.222;2023-07-31T06:49:26;77549.47;;;-141.02;100.00
8477;BME280;4275;42.854;23.222;2023-07-31T06:51:52;78542.63;;;-141.02;100.00
8477;BME280;4275;42.854;23.222;2023-07-31T06:54:19;78542.63;;;-141.02;100.00
8477;BME280;4275;42.854;23.222;2023-07-31T06:56:46;78542.63;;;-141.02;100.00
8477;BME280;4275;42.854;23.222;2023-07-31T06:59:13;79784.44;;;-141.02;100.00
8477;BME280;4275;42.854;23.222;2023-07-31T07:01:40;79784.44;;;-141.02;100.00
8477;BME280;4275;42.854;23.222;2023-07-31T07:04:07;80529.75;;;-141.02;100.00
8477;BME280;4275;42.854;23.222;2023-07-31T07:06:36;79784.44;;;-141.02;100.00
8477;BME280;4275;42.854;23.222;2023-07-31T07:09:03;79784.44;;;-141.02;100.00
8477;BME280;4275;42.854;23.222;2023-07-31T07:11:30;80032.88;;;-141.02;100.00
8477;BME280;4275;42.854;23.222;2023-07-31T07:13:57;79536.03;;;-141.02;100.00
8477;BME280;4275;42.854;23.222;2023-07-31T07:16:24;79039.28;;;-141.02;100.00
8477;BME280;4275;42.854;23.222;2023-07-31T07:18:51;77797.72;;;-141.02;100.00
8477;BME280;4275;42.854;23.222;2023-07-31T07:21:18;75067.88;;;-141.02;100.00
8477;BME280;4275;42.854;23.222;2023-07-31T07:23:47;77797.72;;;-141.02;100.00
8477;BME280;4275;42.854;23.222;2023-07-31T07:26:14;78046.00;;;-141.02;100.00
8477;BME280;4275;42.854;23.222;2023-07-31T07:28:41;76308.44;;;-141.02;100.00
8477;BME280;4275;42.854;23.222;2023-07-31T07:31:08;74571.75;;;-141.02;98.42
8477;BME280;4275;42.854;23.222;2023-07-31T07:33:35;74323.72;;;-141.02;98.37
8477;BME280;4275;42.854;23.222;2023-07-31T07:36:02;73827.72;;;-141.02;96.29
8477;BME280;4275;42.854;23.222;2023-07-31T07:38:29;72588.06;;;-141.02;94.29
8477;BME280;4275;42.854;23.222;2023-07-31T07:40:57;72588.06;;;-141.02;93.82
8477;BME280;4275;42.854;23.222;2023-07-31T07:43:24;70605.50;;;-141.02;91.02
8477;BME280;4275;42.854;23.222;2023-07-31T07:45:51;70605.50;;;-141.02;90.34
8477;BME280;4275;42.854;23.222;2023-07-31T07:48:18;70853.25;;;-141.02;87.16
8477;BME280;4275;42.854;23.222;2023-07-31T07:50:45;68376.50;;;-141.02;85.36
8477;BME280;4275;42.854;23.222;2023-07-31T07:53:12;69366.97;;;-141.02;89.16
8477;BME280;4275;42.854;23.222;2023-07-31T07:55:39;68128.91;;;-141.02;82.45
8477;BME280;4275;42.854;23.222;2023-07-31T07:58:08;65901.53;;;-141.02;84.17
8477;BME280;4275;42.854;23.222;2023-07-31T08:00:35;65159.41;;;-141.02;84.67
8477;BME280;4275;42.854;23.222;2023-07-31T08:03:02;66148.94;;;-141.02;82.96
8477;BME280;4275;42.854;23.222;2023-07-31T08:05:29;65654.13;;;-141.02;83.70
8477;BME280;4275;42.854;23.222;2023-07-31T08:07:59;63181.16;;;-141.02;80.09
8477;BME280;4275;42.854;23.222;2023-07-31T08:10:26;61945.31;;;-141.02;80.89
8477;BME280;4275;42.854;23.222;2023-07-31T08:12:53;60709.94;;;-141.02;84.46
8477;BME280;4275;42.854;23.222;2023-07-31T08:15:22;60709.94;;;-141.02;87.38
8477;BME280;4275;42.854;23.222;2023-07-31T08:17:49;59968.94;;;-141.02;90.05
8477;BME280;4275;42.854;23.222;2023-07-31T08:20:16;60462.94;;;-141.02;90.23
8477;BME280;4275;42.854;23.222;2023-07-31T08:22:43;60462.94;;;-141.02;90.63
8477;BME280;4275;42.854;23.222;2023-07-31T08:25:10;61945.31;;;-141.02;89.20
8477;BME280;4275;42.854;23.222;2023-07-31T08:27:37;61698.22;;;-141.02;86.02
8477;BME280;4275;42.854;23.222;2023-07-31T08:30:05;59475.03;;;-141.02;85.85
8477;BME280;4275;42.854;23.222;2023-07-31T08:32:33;58734.28;;;-141.02;88.35
8477;BME280;4275;42.854;23.222;2023-07-31T08:35:00;61204.03;;;-141.02;88.34
8477;BME280;4275;42.854;23.222;2023-07-31T08:37:28;60709.94;;;-141.02;86.48
8477;BME280;4275;42.854;23.222;2023-07-31T08:39:55;60462.94;;;-141.02;84.43
8477;BME280;4275;42.854;23.222;2023-07-31T08:42:22;58240.56;;;-141.02;85.11
8477;BME280;4275;42.854;23.222;2023-07-31T08:44:51;57993.72;;;-141.02;85.45
8477;BME280;4275;42.854;23.222;2023-07-31T08:47:19;62192.44;;;-141.02;87.27
8477;BME280;4275;42.854;23.222;2023-07-31T08:49:49;59475.03;;;-141.02;81.27
8477;BME280;4275;42.854;23.222;2023-07-31T08:52:18;57253.28;;;-141.02;79.90
8477;BME280;4275;42.854;23.222;2023-07-31T08:54:45;56343.41;;;-141.02;82.30
8477;BME280;4275;42.854;23.222;2023-07-31T08:57:12;57353.53;;;-141.02;83.22
8477;BME280;4275;42.854;23.222;2023-07-31T08:59:40;55601.44;;;-141.02;80.94
8477;BME280;4275;42.854;23.222;2023-07-31T09:02:08;56324.16;;;-141.02;80.69
8477;BME280;4275;42.854;23.222;2023-07-31T09:04:35;56179.59;;;-141.02;78.89
8477;BME280;4275;42.854;23.222;2023-07-31T09:07:05;56135.25;;;-141.02;76.92
8477;BME280;4275;42.854;23.222;2023-07-31T09:09:34;55366.34;;;-141.02;78.48
8477;BME280;4275;42.854;23.222;2023-07-31T09:12:02;54928.97;;;-141.02;80.65
8477;BME280;4275;42.854;23.222;2023-07-31T09:14:29;58487.41;;;-141.02;79.57
8477;BME280;4275;42.854;23.222;2023-07-31T09:16:57;59475.03;;;-141.02;75.79
8477;BME280;4275;42.854;23.222;2023-07-31T09:19:26;59228.09;;;-141.02;70.75
8477;BME280;4275;42.854;23.222;2023-07-31T09:21:53;58444.97;;;-141.02;71.67
8477;BME280;4275;42.854;23.222;2023-07-31T09:24:28;54119.88;;;-141.02;68.94
8477;BME280;4275;42.854;23.222;2023-07-31T09:26:57;57245.56;;;-141.02;69.28
8477;BME280;4275;42.854;23.222;2023-07-31T09:29:26;56193.09;;;-141.02;67.42
8477;BME280;4275;42.854;23.222;2023-07-31T09:31:53;53249.38;;;-141.02;64.02
8477;BME280;4275;42.854;23.222;2023-07-31T09:34:28;53740.44;;;-141.02;67.43
8477;BME280;4275;42.854;23.222;2023-07-31T09:36:58;54792.19;;;-141.02;67.40
8477;BME280;4275;42.854;23.222;2023-07-31T09:39:29;50716.13;;;-141.02;66.10
8477;BME280;4275;42.854;23.222;2023-07-31T09:41:56;50081.19;;;-141.02;68.67
8477;BME280;4275;42.854;23.222;2023-07-31T09:44:37;50100.41;;;-141.02;68.54
8477;BME280;4275;42.854;23.222;2023-07-31T09:47:05;52488.81;;;-141.02;69.06
8477;BME280;4275;42.854;23.222;2023-07-31T09:49:33;53395.72;;;-141.02;65.92
8477;BME280;4275;42.854;23.222;2023-07-31T09:52:00;52475.31;;;-141.02;62.60
8477;BME280;4275;42.854;23.222;2023-07-31T09:54:28;50337.06;;;-141.02;64.73
8477;BME280;4275;42.854;23.222;2023-07-31T09:56:56;52725.63;;;-141.02;65.56
8477;BME280;4275;42.854;23.222;2023-07-31T09:59:25;49204.00;;;-141.02;65.70
8477;BME280;4275;42.854;23.222;2023-07-31T10:01:54;50154.28;;;-141.02;66.46
8477;BME280;4275;42.854;23.222;2023-07-31T10:04:28;49269.41;;;-141.02;65.73
8477;BME280;4275;42.854;23.222;2023-07-31T10:06:57;49407.88;;;-141.02;68.36
8477;BME280;4275;42.854;23.222;2023-07-31T10:09:32;51559.03;;;-141.02;67.61
8477;BME280;4275;42.854;23.222;2023-07-31T10:12:00;51816.97;;;-141.02;64.71
8477;BME280;4275;42.854;23.222;2023-07-31T10:14:30;49607.94;;;-141.02;62.23
8477;BME280;4275;42.854;23.222;2023-07-31T10:16:58;49023.22;;;-141.02;63.90
8477;BME280;4275;42.854;23.222;2023-07-31T10:19:26;48561.66;;;-141.02;65.20
8477;BME280;4275;42.854;23.222;2023-07-31T10:21:54;49321.31;;;-141.02;65.44
8477;BME280;4275;42.854;23.222;2023-07-31T10:24:24;49073.22;;;-141.02;63.63
8477;BME280;4275;42.854;23.222;2023-07-31T10:26:58;49931.13;;;-141.02;61.92
8477;BME280;4275;42.854;23.222;2023-07-31T10:29:27;49569.47;;;-141.02;61.43
8477;BME280;4275;42.854;23.222;2023-07-31T10:31:56;49261.69;;;-141.02;59.52
8477;BME280;4275;42.854;23.222;2023-07-31T10:34:24;47757.94;;;-141.02;59.47
8477;BME280;4275;42.854;23.222;2023-07-31T10:37:23;47394.59;;;-141.02;62.24
8477;BME280;4275;42.854;23.222;2023-07-31T10:40:01;46677.63;;;-141.02;62.16
8477;BME280;4275;42.854;23.222;2023-07-31T10:42:34;46373.97;;;-141.02;61.57
8477;BME280;4275;42.854;23.222;2023-07-31T10:45:03;46256.75;;;-141.02;61.72
8477;BME280;4275;42.854;23.222;2023-07-31T10:47:31;46370.13;;;-141.02;62.82
8477;BME280;4275;42.854;23.222;2023-07-31T10:50:19;45593.81;;;-141.02;63.72
8477;BME280;4275;42.854;23.222;2023-07-31T10:52:47;45943.53;;;-141.02;62.30
8477;BME280;4275;42.854;23.222;2023-07-31T10:55:26;46379.75;;;-141.02;62.95
8477;BME280;4275;42.854;23.222;2023-07-31T10:57:56;46523.88;;;-141.02;61.91
8477;BME280;4275;42.854;23.222;2023-07-31T11:00:26;47246.56;;;-141.02;61.68
8477;BME280;4275;42.854;23.222;2023-07-31T11:02:58;47623.34;;;-141.02;60.65
8477;BME280;4275;42.854;23.222;2023-07-31T11:05:44;48596.25;;;-141.02;60.51
8477;BME280;4275;42.854;23.222;2023-07-31T11:08:13;48473.19;;;-141.02;60.69
8477;BME280;4275;42.854;23.222;2023-07-31T11:10:41;46700.69;;;-141.02;61.19
8477;BME280;4275;42.854;23.222;2023-07-31T11:13:09;46176.03;;;-141.02;61.36
8477;BME280;4275;42.854;23.222;2023-07-31T11:15:37;45332.53;;;-141.02;63.32
8477;BME280;4275;42.854;23.222;2023-07-31T11:18:04;44967.53;;;-141.02;64.21
8477;BME280;4275;42.854;23.222;2023-07-31T11:20:34;46379.75;;;-141.02;64.05
8477;BME280;4275;42.854;23.222;2023-07-31T11:23:02;47335.00;;;-141.02;61.08
8477;BME280;4275;42.854;23.222;2023-07-31T11:25:30;48184.75;;;-141.02;58.12
8477;BME280;4275;42.854;23.222;2023-07-31T11:28:01;48853.97;;;-141.02;56.34
8477;BME280;4275;42.854;23.222;2023-07-31T11:30:30;48390.50;;;-141.02;56.55
8477;BME280;4275;42.854;23.222;2023-07-31T11:32:57;46900.56;;;-141.02;55.89
8477;BME280;4275;42.854;23.222;2023-07-31T11:35:24;46035.75;;;-141.02;56.79
8477;BME280;4275;42.854;23.222;2023-07-31T11:37:51;45184.59;;;-141.02;60.54
8477;BME280;4275;42.854;23.222;2023-07-31T11:40:18;44648.66;;;-141.02;63.53
8477;BME280;4275;42.854;23.222;2023-07-31T11:42:45;44571.84;;;-141.02;65.84
8477;BME280;4275;42.854;23.222;2023-07-31T11:45:12;44596.81;;;-141.02;66.56
8477;BME280;4275;42.854;23.222;2023-07-31T11:47:41;45332.53;;;-141.02;67.38
8477;BME280;4275;42.854;23.222;2023-07-31T11:50:10;45224.94;;;-141.02;65.79
8477;BME280;4275;42.854;23.222;2023-07-31T11:52:40;44560.31;;;-141.02;64.59
8477;BME280;4275;42.854;23.222;2023-07-31T11:55:09;44149.31;;;-141.02;65.14
8477;BME280;4275;42.854;23.222;2023-07-31T11:57:38;44395.13;;;-141.02;64.34
8477;BME280;4275;42.854;23.222;2023-07-31T12:00:07;44550.72;;;-141.02;64.93
8477;BME280;4275;42.854;23.222;2023-07-31T12:02:37;45015.56;;;-141.02;65.13
8477;BME280;4275;42.854;23.222;2023-07-31T12:05:10;45234.56;;;-141.02;63.52
8477;BME280;4275;42.854;23.222;2023-07-31T12:07:45;45762.91;;;-141.02;62.30
8477;BME280;4275;42.854;23.222;2023-07-31T12:10:23;45480.47;;;-141.02;61.44
8477;BME280;4275;42.854;23.222;2023-07-31T12:12:59;45301.78;;;-141.02;60.22
8477;BME280;4275;42.854;23.222;2023-07-31T12:15:33;45974.28;;;-141.02;60.36
8477;BME280;4275;42.854;23.222;2023-07-31T12:18:04;45862.81;;;-141.02;59.37
8477;BME280;4275;42.854;23.222;2023-07-31T12:20:33;46012.69;;;-141.02;59.43
8477;BME280;4275;42.854;23.222;2023-07-31T12:23:00;46216.38;;;-141.02;58.70
8477;BME280;4275;42.854;23.222;2023-07-31T12:25:32;45766.75;;;-141.02;57.96
8477;BME280;4275;42.854;23.222;2023-07-31T12:28:04;46347.06;;;-141.02;58.19
8477;BME280;4275;42.854;23.222;2023-07-31T12:30:34;45980.03;;;-141.02;57.63
8477;BME280;4275;42.854;23.222;2023-07-31T12:33:04;45574.63;;;-141.02;58.42
8477;BME280;4275;42.854;23.222;2023-07-31T12:35:37;45739.84;;;-141.02;58.20
8477;BME280;4275;42.854;23.222;2023-07-31T12:38:04;45188.44;;;-141.02;58.53
8477;BME280;4275;42.854;23.222;2023-07-31T12:40:31;45176.94;;;-141.02;58.53
8477;BME280;4275;42.854;23.222;2023-07-31T12:43:01;45136.59;;;-141.02;58.07
8477;BME280;4275;42.854;23.222;2023-07-31T12:45:29;45524.66;;;-141.02;58.10
8477;BME280;4275;42.854;23.222;2023-07-31T12:47:56;45864.75;;;-141.02;57.63
8477;BME280;4275;42.854;23.222;2023-07-31T12:50:23;45211.50;;;-141.02;57.11
8477;BME280;4275;42.854;23.222;2023-07-31T12:52:53;45643.78;;;-141.02;56.47
8477;BME280;4275;42.854;23.222;2023-07-31T12:55:20;45238.41;;;-141.02;56.27
8477;BME280;4275;42.854;23.222;2023-07-31T12:57:47;44763.91;;;-141.02;55.78
8477;BME280;4275;42.854;23.222;2023-07-31T13:00:14;44956.00;;;-141.02;56.31
8477;BME280;4275;42.854;23.222;2023-07-31T13:02:41;45382.50;;;-141.02;57.46
8477;BME280;4275;42.854;23.222;2023-07-31T13:05:08;46281.72;;;-141.02;56.55
8477;BME280;4275;42.854;23.222;2023-07-31T13:07:36;46062.66;;;-141.02;55.08
8477;BME280;4275;42.854;23.222;2023-07-31T13:10:07;46345.16;;;-141.02;54.81
8477;BME280;4275;42.854;23.222;2023-07-31T13:12:34;45344.06;;;-141.02;54.84
8477;BME280;4275;42.854;23.222;2023-07-31T13:15:01;44856.13;;;-141.02;56.65
8477;BME280;4275;42.854;23.222;2023-07-31T13:17:28;44771.59;;;-141.02;56.43
8477;BME280;4275;42.854;23.222;2023-07-31T13:19:55;45194.22;;;-141.02;57.00
8477;BME280;4275;42.854;23.222;2023-07-31T13:22:22;44896.47;;;-141.02;55.37
8477;BME280;4275;42.854;23.222;2023-07-31T13:24:49;45424.75;;;-141.02;55.41
8477;BME280;4275;42.854;23.222;2023-07-31T13:27:18;45409.38;;;-141.02;54.61
8477;BME280;4275;42.854;23.222;2023-07-31T13:29:47;45059.75;;;-141.02;55.43
8477;BME280;4275;42.854;23.222;2023-07-31T13:32:15;44883.00;;;-141.02;55.17
8477;BME280;4275;42.854;23.222;2023-07-31T13:34:42;44846.50;;;-141.02;55.82
8477;BME280;4275;42.854;23.222;2023-07-31T13:37:09;45163.47;;;-141.02;55.59
8477;BME280;4275;42.854;23.222;2023-07-31T13:39:36;44840.75;;;-141.02;56.06